createdAt,value
2019-04-30T00:02:20.780Z,101430.48
2019-04-30T00:07:24.942Z,101418.64
2019-04-30T00:12:30.812Z,101423.83
2019-04-30T00:17:35.850Z,101425.04
2019-04-30T00:22:47.195Z,101420.70
2019-04-30T00:27:48.158Z,101416.33
2019-04-30T00:32:51.809Z,101404.39
2019-04-30T00:37:57.557Z,101400.28
2019-04-30T00:43:07.560Z,101401.27
2019-04-30T00:48:07.769Z,101393.64
2019-04-30T00:53:14.097Z,101392.20
2019-04-30T00:58:24.708Z,101389.78
2019-04-30T01:03:25.209Z,101389.05
2019-04-30T01:08:32.681Z,101389.17
2019-04-30T01:13:36.745Z,101390.73
2019-04-30T01:18:40.874Z,101391.81
2019-04-30T01:23:51.753Z,101389.49
2019-04-30T01:28:53.739Z,101387.33
2019-04-30T01:33:58.950Z,101382.23
2019-04-30T01:39:04.088Z,101385.16
2019-04-30T01:44:11.836Z,101385.87
2019-04-30T01:49:13.841Z,101383.06
2019-04-30T01:54:23.911Z,101381.12
2019-04-30T01:59:23.686Z,101386.53
2019-04-30T02:04:28.990Z,101388.20
2019-04-30T02:09:33.382Z,101389.74
2019-04-30T02:14:39.422Z,101391.38
2019-04-30T02:19:54.160Z,101392.17
2019-04-30T02:24:48.891Z,101398.31
2019-04-30T02:29:52.908Z,101394.68
2019-04-30T02:34:59.677Z,101401.64
2019-04-30T02:40:05.382Z,101399.48
2019-04-30T02:45:10.560Z,101401.23
2019-04-30T02:50:18.665Z,101403.37
2019-04-30T02:55:29.718Z,101400.16
2019-04-30T03:00:33.747Z,101394.66
2019-04-30T03:05:39.232Z,101403.87
2019-04-30T03:10:43.337Z,101398.20
2019-04-30T03:15:49.325Z,101404.05
2019-04-30T03:20:53.517Z,101405.41
2019-04-30T03:25:59.763Z,101408.23
2019-04-30T03:31:06.004Z,101410.72
2019-04-30T03:36:12.391Z,101404.91
2019-04-30T03:41:15.897Z,101414.16
2019-04-30T03:46:20.168Z,101415.10
2019-04-30T03:51:24.195Z,101411.70
2019-04-30T03:56:29.931Z,101421.56
2019-04-30T04:01:34.211Z,101423.61
2019-04-30T04:06:39.467Z,101424.67
2019-04-30T04:11:43.786Z,101430.56
2019-04-30T04:16:50.421Z,101437.17
2019-04-30T04:21:53.675Z,101443.31
2019-04-30T04:27:00.267Z,101453.95
2019-04-30T04:32:05.129Z,101443.67
2019-04-30T04:37:10.077Z,101449.92
2019-04-30T04:42:15.944Z,101460.34
2019-04-30T04:47:20.461Z,101457.46
2019-04-30T04:52:25.031Z,101449.08
2019-04-30T04:57:30.503Z,101445.77
2019-04-30T05:02:34.962Z,101445.15
2019-04-30T05:07:39.940Z,101443.35
2019-04-30T05:12:44.280Z,101450.20
2019-04-30T05:17:49.431Z,101457.30
2019-04-30T05:22:53.673Z,101455.06
2019-04-30T05:27:58.685Z,101452.26
2019-04-30T05:33:02.887Z,101454.42
2019-04-30T05:38:09.169Z,101458.30
2019-04-30T05:43:13.147Z,101460.23
2019-04-30T05:48:18.911Z,101457.22
2019-04-30T05:53:23.042Z,101467.66
2019-04-30T05:58:29.976Z,101455.73
2019-04-30T06:03:34.317Z,101471.34
2019-04-30T06:08:39.322Z,101467.14
2019-04-30T06:13:43.706Z,101457.48
2019-04-30T06:18:48.554Z,101467.62
2019-04-30T06:23:52.657Z,101474.28
2019-04-30T06:28:56.696Z,101476.69
2019-04-30T06:34:01.212Z,101480.34
2019-04-30T06:39:06.387Z,101485.61
2019-04-30T06:44:10.523Z,101482.91
2019-04-30T06:49:15.497Z,101480.91
2019-04-30T06:54:19.581Z,101483.66
2019-04-30T06:59:23.610Z,101482.50
2019-04-30T07:04:29.307Z,101472.45
2019-04-30T07:09:39.822Z,101473.42
2019-04-30T07:14:41.773Z,101462.46
2019-04-30T07:19:55.690Z,101462.46
2019-04-30T07:24:50.937Z,101473.36
2019-04-30T07:29:54.997Z,101475.88
2019-04-30T07:34:59.521Z,101468.44
2019-04-30T07:40:09.107Z,101463.80
2019-04-30T07:45:13.481Z,101470.55
2019-04-30T07:50:20.593Z,101468.61
2019-04-30T07:55:23.663Z,101470.63
2019-04-30T08:00:31.000Z,101466.85
2019-04-30T08:05:33.630Z,101457.16
2019-04-30T08:10:39.389Z,101460.48
2019-04-30T08:15:45.401Z,101459.89
2019-04-30T08:20:49.410Z,101461.95
2019-04-30T08:25:53.467Z,101461.75
2019-04-30T08:30:58.980Z,101456.48
2019-04-30T08:36:03.448Z,101459.08
2019-04-30T08:41:09.340Z,101453.05
2019-04-30T08:46:13.155Z,101467.63
2019-04-30T08:51:19.054Z,101461.44
2019-04-30T08:56:22.974Z,101468.19
2019-04-30T09:01:29.399Z,101460.06
2019-04-30T09:06:33.313Z,101461.73
2019-04-30T09:11:49.970Z,101451.04
2019-04-30T09:16:43.219Z,101441.05
2019-04-30T09:21:48.851Z,101446.14
2019-04-30T09:26:53.148Z,101436.48
2019-04-30T09:31:59.235Z,101436.54
2019-04-30T09:37:03.858Z,101434.84
2019-04-30T09:42:09.254Z,101433.69
2019-04-30T09:47:13.895Z,101432.54
2019-04-30T09:52:19.354Z,101419.59
2019-04-30T09:57:24.003Z,101419.81
2019-04-30T10:02:29.101Z,101427.77
2019-04-30T10:07:33.309Z,101428.55
2019-04-30T10:12:39.156Z,101426.14
2019-04-30T10:17:43.330Z,101408.22
2019-04-30T10:22:49.520Z,101417.75
2019-04-30T10:27:53.691Z,101399.40
2019-04-30T10:32:59.573Z,101398.31
2019-04-30T10:38:04.008Z,101389.72
2019-04-30T10:43:08.843Z,101384.28
2019-04-30T10:48:13.597Z,101381.65
2019-04-30T10:53:17.598Z,101382.95
2019-04-30T10:58:22.231Z,101382.54
2019-04-30T11:03:26.583Z,101372.94
2019-04-30T11:08:30.635Z,101368.56
2019-04-30T11:13:34.933Z,101378.74
2019-04-30T11:18:39.171Z,101373.03
2019-04-30T11:23:43.758Z,101377.74
2019-04-30T11:28:49.412Z,101375.45
2019-04-30T11:33:53.698Z,101361.95
2019-04-30T11:38:58.638Z,101349.16
2019-04-30T11:44:02.749Z,101364.80
2019-04-30T11:49:07.359Z,101350.61
2019-04-30T11:54:11.531Z,101342.87
2019-04-30T11:59:16.308Z,101344.52
2019-04-30T12:04:20.866Z,101334.73
2019-04-30T12:09:25.746Z,101322.73
2019-04-30T12:14:29.826Z,101328.49
2019-04-30T12:19:34.195Z,101319.09
2019-04-30T12:24:41.632Z,101318.51
2019-04-30T12:29:46.392Z,101312.42
2019-04-30T12:34:51.573Z,101312.85
2019-04-30T12:39:55.667Z,101307.00
2019-04-30T12:45:00.513Z,101304.73
2019-04-30T12:50:05.106Z,101302.08
2019-04-30T12:55:15.642Z,101289.17
2019-04-30T13:00:16.366Z,101294.81
2019-04-30T13:05:20.386Z,101291.84
2019-04-30T13:10:25.180Z,101283.30
2019-04-30T13:15:30.023Z,101282.71
2019-04-30T13:20:49.968Z,101268.83
2019-04-30T13:25:54.788Z,101260.30
2019-04-30T13:31:00.403Z,101251.83
2019-04-30T13:36:04.547Z,101253.16
2019-04-30T13:41:08.940Z,101243.18
2019-04-30T13:46:13.073Z,101238.59
2019-04-30T13:51:17.365Z,101230.41
2019-04-30T13:56:41.879Z,101235.12
2019-04-30T14:01:45.944Z,101228.37
2019-04-30T14:06:49.942Z,101239.20
2019-04-30T14:11:53.962Z,101240.96
2019-04-30T14:16:58.675Z,101234.94
2019-04-30T14:22:04.288Z,101243.28
2019-04-30T14:33:06.183Z,101237.09
2019-04-30T14:38:22.892Z,101240.09
2019-04-30T14:43:29.421Z,101237.58
2019-04-30T14:48:33.681Z,101231.20
2019-04-30T14:53:39.067Z,101237.34
2019-04-30T14:58:43.398Z,101228.34
2019-04-30T15:03:49.484Z,101232.48
2019-04-30T15:08:53.714Z,101218.23
2019-04-30T15:13:59.162Z,101213.70
2019-04-30T15:19:03.407Z,101215.50
2019-04-30T15:24:09.251Z,101200.14
2019-04-30T15:29:15.908Z,101200.58
2019-04-30T15:34:19.283Z,101204.21
2019-04-30T15:39:23.926Z,101198.98
2019-04-30T15:44:27.942Z,101198.59
2019-04-30T15:49:32.044Z,101193.48
2019-04-30T15:54:36.426Z,101192.66
2019-04-30T15:59:40.529Z,101191.95
2019-04-30T16:04:44.872Z,101185.03
2019-04-30T16:09:49.047Z,101180.38
2019-04-30T16:14:53.236Z,101178.61
2019-04-30T16:20:01.041Z,101172.18
2019-04-30T16:25:05.705Z,101174.41
2019-04-30T16:30:10.274Z,101165.30
2019-04-30T16:35:14.251Z,101168.07
2019-04-30T16:40:19.086Z,101164.52
2019-04-30T16:45:23.574Z,101161.83
2019-04-30T16:50:27.559Z,101156.69
2019-04-30T16:55:31.610Z,101151.25
2019-04-30T17:00:35.665Z,101149.55
2019-04-30T17:05:39.682Z,101146.95
2019-04-30T17:10:43.800Z,101143.64
2019-04-30T17:15:47.853Z,101136.31
2019-04-30T17:20:52.004Z,101151.41
2019-04-30T17:25:56.055Z,101149.23
2019-04-30T17:31:00.041Z,101144.63
2019-04-30T17:36:04.371Z,101143.73
2019-04-30T17:41:08.504Z,101142.08
2019-04-30T17:46:12.639Z,101140.00
2019-04-30T17:51:16.694Z,101132.87
2019-04-30T17:56:20.823Z,101136.40
2019-04-30T18:01:24.842Z,101133.74
2019-04-30T18:06:29.232Z,101133.59
2019-04-30T18:11:33.406Z,101134.36
2019-04-30T18:16:38.682Z,101136.81
2019-04-30T18:21:42.999Z,101140.96
2019-04-30T18:26:47.130Z,101148.77
2019-04-30T18:31:51.712Z,101142.66
2019-04-30T18:36:55.853Z,101150.82
2019-04-30T18:41:59.931Z,101140.96
2019-04-30T18:47:04.067Z,101149.11
2019-04-30T18:52:09.090Z,101153.05
2019-04-30T18:57:14.421Z,101151.59
2019-04-30T19:02:18.887Z,101154.66
2019-04-30T19:07:23.387Z,101157.79
2019-04-30T19:12:29.143Z,101168.98
2019-04-30T19:17:33.342Z,101165.58
2019-04-30T19:22:39.609Z,101174.86
2019-04-30T19:27:45.930Z,101177.95
2019-04-30T19:32:51.255Z,101179.77
2019-04-30T19:38:00.575Z,101186.23
2019-04-30T19:43:07.370Z,101177.75
2019-04-30T19:48:16.221Z,101175.17
2019-04-30T19:53:22.349Z,101171.15
2019-04-30T19:58:46.335Z,101168.27
2019-04-30T20:03:32.158Z,101176.59
2019-04-30T20:08:36.357Z,101174.75
2019-04-30T20:13:40.547Z,101170.13
2019-04-30T20:18:44.783Z,101170.13
2019-04-30T20:23:49.186Z,101183.91
2019-04-30T20:28:53.487Z,101188.09
2019-04-30T20:33:59.118Z,101182.28
2019-04-30T20:39:04.659Z,101185.05
2019-04-30T20:44:10.575Z,101179.28
2019-04-30T20:49:14.605Z,101179.03
2019-04-30T20:54:19.022Z,101177.12
2019-04-30T20:59:23.140Z,101176.02
2019-04-30T21:04:27.323Z,101168.86
2019-04-30T21:09:31.605Z,101157.71
2019-04-30T21:14:35.606Z,101157.71
2019-04-30T21:25:00.341Z,101156.58
2019-04-30T21:30:04.335Z,101161.52
2019-04-30T21:35:09.895Z,101156.24
2019-04-30T21:40:14.107Z,101152.30
2019-04-30T21:45:18.138Z,101153.53
2019-04-30T21:50:23.645Z,101156.30
2019-04-30T21:55:29.572Z,101147.84
2019-04-30T22:00:33.963Z,101142.64
2019-04-30T22:05:38.093Z,101138.48
2019-04-30T22:10:42.125Z,101129.48
2019-04-30T22:15:46.485Z,101131.83
2019-04-30T22:20:50.710Z,101124.04
2019-04-30T22:25:54.736Z,101129.91
2019-04-30T22:30:58.763Z,101121.41
2019-04-30T22:36:02.828Z,101115.22
2019-04-30T22:41:08.747Z,101116.91
2019-04-30T22:46:12.988Z,101111.58
2019-04-30T22:51:17.075Z,101109.53
2019-04-30T22:56:23.823Z,101106.19
2019-04-30T23:01:27.885Z,101101.11
2019-04-30T23:06:31.964Z,101097.41
2019-04-30T23:11:36.024Z,101083.25
2019-04-30T23:16:40.067Z,101084.12
2019-04-30T23:21:44.466Z,101081.12
2019-04-30T23:26:48.499Z,101076.14
2019-04-30T23:31:52.618Z,101065.44
2019-04-30T23:36:56.975Z,101070.27
2019-04-30T23:42:01.093Z,101062.96
2019-04-30T23:47:05.139Z,101051.09
2019-04-30T23:52:09.851Z,101039.41
2019-04-30T23:57:14.272Z,101031.59
